createdAt,value
2018-03-20T00:01:06.410Z,10.23
2018-03-20T00:04:07.624Z,11.03
2018-03-20T00:07:08.855Z,22.40
2018-03-20T00:10:10.844Z,13.03
2018-03-20T00:13:12.827Z,13.87
2018-03-20T00:16:14.063Z,15.63
2018-03-20T00:19:15.291Z,32.93
2018-03-20T00:22:16.530Z,11.73
2018-03-20T00:25:17.754Z,12.47
2018-03-20T00:28:19.082Z,14.13
2018-03-20T00:31:20.333Z,13.20
2018-03-20T00:34:21.563Z,12.13
2018-03-20T00:37:23.554Z,9.23
2018-03-20T00:40:24.772Z,11.53
2018-03-20T00:43:26.009Z,18.93
2018-03-20T00:46:27.251Z,13.20
2018-03-20T00:49:28.501Z,13.53
2018-03-20T00:52:29.776Z,11.10
2018-03-20T00:55:31.010Z,14.50
2018-03-20T00:58:32.982Z,17.80
2018-03-20T01:01:34.250Z,12.73
2018-03-20T01:04:36.253Z,17.90
2018-03-20T01:07:37.520Z,11.50
2018-03-20T01:10:38.789Z,19.43
2018-03-20T01:13:40.061Z,11.73
2018-03-20T01:16:41.282Z,15.70
2018-03-20T01:19:42.572Z,12.03
2018-03-20T01:22:43.871Z,15.07
2018-03-20T01:25:45.085Z,11.13
2018-03-20T01:28:47.058Z,18.93
2018-03-20T01:31:49.008Z,11.40
2018-03-20T01:34:50.257Z,14.43
2018-03-20T01:37:51.507Z,12.77
2018-03-20T01:40:52.731Z,9.37
2018-03-20T01:43:54.691Z,13.03
2018-03-20T01:46:55.942Z,28.77
2018-03-20T01:49:57.204Z,13.37
2018-03-20T01:53:16.933Z,12.70
2018-03-20T01:56:18.937Z,13.37
2018-03-20T01:59:20.197Z,14.23
2018-03-20T02:02:21.469Z,12.23
2018-03-20T02:05:22.687Z,13.63
2018-03-20T02:08:23.923Z,12.50
2018-03-20T02:11:25.151Z,11.37
2018-03-20T02:14:26.414Z,16.43
2018-03-20T02:17:27.640Z,14.17
2018-03-20T02:20:28.869Z,11.20
2018-03-20T02:23:30.111Z,18.40
2018-03-20T02:26:31.359Z,10.97
2018-03-20T02:29:32.624Z,16.87
2018-03-20T02:32:33.847Z,18.00
2018-03-20T02:35:35.091Z,13.67
2018-03-20T02:42:06.328Z,18.57
2018-03-20T02:45:08.319Z,15.60
2018-03-20T02:48:10.323Z,13.50
2018-03-20T02:51:11.582Z,17.67
2018-03-20T02:54:12.808Z,10.10
2018-03-20T02:57:14.815Z,13.57
2018-03-20T03:00:16.074Z,10.90
2018-03-20T03:03:18.101Z,15.67
2018-03-20T03:06:19.377Z,15.13
2018-03-20T03:09:20.646Z,15.07
2018-03-20T03:12:21.944Z,15.13
2018-03-20T03:15:23.154Z,12.90
2018-03-20T03:18:24.386Z,12.80
2018-03-20T03:21:25.618Z,20.10
2018-03-20T03:24:27.606Z,14.70
2018-03-20T03:27:28.855Z,13.20
2018-03-20T03:30:30.859Z,11.50
2018-03-20T03:33:32.120Z,16.03
2018-03-20T03:36:33.489Z,18.80
2018-03-20T03:39:34.737Z,14.53
2018-03-20T03:42:36.743Z,18.50
2018-03-20T03:45:37.979Z,12.50
2018-03-20T03:48:39.974Z,10.53
2018-03-20T03:51:41.219Z,26.90
2018-03-20T03:54:43.250Z,17.57
2018-03-20T03:57:44.506Z,13.20
2018-03-20T04:00:45.727Z,17.40
2018-03-20T04:03:47.744Z,16.43
2018-03-20T04:06:49.004Z,12.33
2018-03-20T04:09:50.274Z,14.33
2018-03-20T04:12:51.521Z,13.97
2018-03-20T04:15:52.799Z,10.00
2018-03-20T04:18:54.039Z,11.80
2018-03-20T04:21:55.293Z,11.20
2018-03-20T04:24:57.265Z,14.70
2018-03-20T04:27:59.214Z,14.50
2018-03-20T04:31:00.474Z,13.93
2018-03-20T04:34:01.739Z,21.67
2018-03-20T04:37:03.006Z,12.00
2018-03-20T04:40:04.316Z,17.90
2018-03-20T04:43:05.563Z,14.30
2018-03-20T04:46:07.593Z,16.43
2018-03-20T04:49:08.865Z,15.17
2018-03-20T04:52:10.132Z,23.07
2018-03-20T04:55:11.365Z,11.93
2018-03-20T04:58:12.621Z,21.30
2018-03-20T05:01:13.872Z,17.10
2018-03-20T05:04:15.862Z,14.43
2018-03-20T05:07:17.102Z,24.53
2018-03-20T05:10:18.342Z,16.27
2018-03-20T05:13:19.606Z,15.67
2018-03-20T05:16:20.842Z,19.33
2018-03-20T05:23:08.476Z,18.97
2018-03-20T05:26:10.486Z,18.13
2018-03-20T05:29:11.753Z,27.50
2018-03-20T05:32:13.034Z,30.47
2018-03-20T05:35:14.353Z,30.03
2018-03-20T05:38:16.323Z,28.17
2018-03-20T05:41:17.559Z,39.83
2018-03-20T05:44:19.569Z,33.70
2018-03-20T05:47:27.031Z,34.07
2018-03-20T05:54:09.270Z,35.97
2018-03-20T05:57:10.530Z,34.43
2018-03-20T06:00:11.842Z,46.90
2018-03-20T06:03:13.078Z,36.23
2018-03-20T06:06:14.349Z,44.57
2018-03-20T06:09:15.582Z,42.70
2018-03-20T06:12:16.799Z,52.20
2018-03-20T06:15:18.042Z,35.23
2018-03-20T06:18:19.295Z,40.70
2018-03-20T06:21:20.543Z,40.70
2018-03-20T06:24:21.774Z,37.03
2018-03-20T06:27:23.751Z,45.77
2018-03-20T06:30:25.738Z,49.87
2018-03-20T06:33:27.743Z,50.03
2018-03-20T06:36:28.987Z,49.87
2018-03-20T06:39:30.986Z,50.80
2018-03-20T06:42:32.224Z,45.70
2018-03-20T06:45:34.230Z,49.77
2018-03-20T06:48:35.489Z,58.53
2018-03-20T06:51:36.718Z,54.87
2018-03-20T06:54:38.032Z,48.03
2018-03-20T06:57:39.283Z,44.73
2018-03-20T07:00:40.557Z,41.83
2018-03-20T07:03:41.816Z,46.47
2018-03-20T07:06:43.045Z,64.50
2018-03-20T07:09:45.000Z,57.10
2018-03-20T07:12:46.243Z,59.73
2018-03-20T07:15:47.494Z,70.63
2018-03-20T07:18:48.745Z,83.17
2018-03-20T07:21:50.092Z,78.90
2018-03-20T07:24:51.815Z,77.37
2018-03-20T07:27:53.262Z,62.97
2018-03-20T07:30:54.518Z,70.47
2018-03-20T07:33:55.798Z,57.37
2018-03-20T07:36:57.055Z,70.10
2018-03-20T07:39:58.367Z,46.60
2018-03-20T07:42:59.589Z,69.97
2018-03-20T07:46:00.890Z,56.27
2018-03-20T07:49:02.210Z,72.93
2018-03-20T07:52:03.471Z,79.33
2018-03-20T07:55:04.752Z,56.57
2018-03-20T07:58:06.010Z,60.13
2018-03-20T08:01:07.265Z,43.53
2018-03-20T08:04:08.494Z,47.20
2018-03-20T08:07:09.723Z,32.80
2018-03-20T08:10:10.988Z,45.43
2018-03-20T08:13:12.286Z,42.43
2018-03-20T08:16:13.570Z,41.33
2018-03-20T08:19:14.814Z,23.50
2018-03-20T08:22:16.099Z,24.30
2018-03-20T08:25:17.402Z,36.03
2018-03-20T08:28:19.411Z,41.60
2018-03-20T08:31:21.627Z,34.13
2018-03-20T08:34:22.884Z,23.07
2018-03-20T08:37:24.171Z,28.73
2018-03-20T08:40:25.410Z,40.93
2018-03-20T08:43:26.655Z,41.13
2018-03-20T08:46:28.657Z,24.20
2018-03-20T08:49:29.891Z,21.80
2018-03-20T08:52:31.896Z,21.27
2018-03-20T08:55:33.179Z,19.47
2018-03-20T08:58:34.449Z,22.50
2018-03-20T09:01:35.867Z,19.77
2018-03-20T09:04:37.124Z,29.40
2018-03-20T09:07:39.107Z,21.27
2018-03-20T09:10:41.227Z,20.80
2018-03-20T09:13:42.474Z,13.27
2018-03-20T09:16:43.703Z,12.40
2018-03-20T09:19:44.950Z,14.20
2018-03-20T09:22:46.176Z,16.50
2018-03-20T09:25:47.411Z,12.20
2018-03-20T09:28:48.656Z,24.07
2018-03-20T09:31:49.977Z,10.60
2018-03-20T09:34:51.234Z,13.40
2018-03-20T09:37:53.195Z,11.77
2018-03-20T09:40:54.439Z,9.83
2018-03-20T09:43:56.413Z,19.43
2018-03-20T09:46:58.410Z,10.60
2018-03-20T09:49:59.650Z,9.90
2018-03-20T09:53:00.898Z,24.13
2018-03-20T09:56:02.181Z,7.27
2018-03-20T09:59:04.163Z,11.13
2018-03-20T10:02:06.131Z,10.33
2018-03-20T10:05:07.458Z,8.27
2018-03-20T10:08:08.691Z,8.30
2018-03-20T10:11:09.939Z,12.13
2018-03-20T10:14:11.939Z,4.63
2018-03-20T10:17:13.190Z,9.33
2018-03-20T10:20:15.232Z,7.70
2018-03-20T10:23:17.153Z,5.40
2018-03-20T10:26:18.431Z,14.97
2018-03-20T10:29:19.679Z,6.17
2018-03-20T10:32:20.926Z,4.03
2018-03-20T10:35:22.902Z,4.13
2018-03-20T10:38:24.969Z,3.70
2018-03-20T10:41:26.226Z,4.40
2018-03-20T10:44:27.470Z,4.00
2018-03-20T10:47:28.729Z,5.23
2018-03-20T10:50:30.004Z,3.00
2018-03-20T10:53:31.235Z,5.33
2018-03-20T10:56:32.494Z,3.70
2018-03-20T10:59:33.749Z,3.13
2018-03-20T11:02:35.025Z,2.40
2018-03-20T11:05:36.280Z,5.17
2018-03-20T11:08:37.550Z,4.73
2018-03-20T11:11:39.594Z,3.77
2018-03-20T11:14:41.587Z,7.73
2018-03-20T11:17:43.571Z,3.43
2018-03-20T11:20:44.787Z,4.10
2018-03-20T11:23:46.047Z,3.83
2018-03-20T11:26:47.299Z,5.27
2018-03-20T11:29:48.579Z,3.90
2018-03-20T11:32:49.823Z,5.17
2018-03-20T11:35:51.109Z,4.97
2018-03-20T11:38:52.389Z,4.30
2018-03-20T11:41:53.636Z,3.30
2018-03-20T11:44:54.921Z,7.80
2018-03-20T11:47:56.926Z,5.73
2018-03-20T11:50:58.210Z,10.97
2018-03-20T11:53:59.485Z,2.40
2018-03-20T11:57:00.721Z,4.07
2018-03-20T12:00:02.025Z,3.20
2018-03-20T12:03:03.282Z,9.50
2018-03-20T12:06:04.557Z,11.23
2018-03-20T12:09:14.624Z,3.10
2018-03-20T12:12:15.913Z,3.13
2018-03-20T12:15:17.179Z,1.90
2018-03-20T12:18:19.195Z,9.53
2018-03-20T12:21:21.059Z,2.63
2018-03-20T12:24:22.346Z,10.33
2018-03-20T12:27:23.608Z,3.23
2018-03-20T12:30:24.844Z,4.30
2018-03-20T12:33:26.120Z,1.20
2018-03-20T12:36:27.359Z,2.60
2018-03-20T12:39:28.588Z,2.33
2018-03-20T12:42:29.851Z,4.33
2018-03-20T12:45:31.109Z,2.77
2018-03-20T12:48:32.347Z,5.67
2018-03-20T12:51:33.588Z,5.70
2018-03-20T12:54:35.638Z,1.80
2018-03-20T12:57:36.848Z,8.43
2018-03-20T13:00:38.099Z,2.80
2018-03-20T13:03:39.366Z,4.30
2018-03-20T13:06:40.637Z,15.73
2018-03-20T13:09:41.926Z,6.00
2018-03-20T13:12:43.175Z,6.40
2018-03-20T13:15:44.426Z,5.10
2018-03-20T13:18:45.670Z,3.53
2018-03-20T13:21:47.659Z,3.33
2018-03-20T13:24:49.620Z,8.93
2018-03-20T13:27:51.605Z,5.60
2018-03-20T13:30:53.568Z,3.17
2018-03-20T13:33:54.828Z,3.00
2018-03-20T13:36:56.101Z,3.03
2018-03-20T13:39:57.332Z,2.40
2018-03-20T13:42:58.631Z,2.20
2018-03-20T13:46:00.626Z,17.77
2018-03-20T13:49:01.899Z,1.70
2018-03-20T13:52:03.160Z,3.13
2018-03-20T13:55:04.440Z,1.43
2018-03-20T13:58:05.696Z,2.60
2018-03-20T14:01:06.977Z,9.13
2018-03-20T14:04:08.262Z,11.33
2018-03-20T14:07:09.502Z,3.73
2018-03-20T14:10:10.769Z,2.33
2018-03-20T14:13:12.067Z,7.93
2018-03-20T14:16:14.059Z,3.13
2018-03-20T14:19:15.312Z,1.50
2018-03-20T14:22:16.558Z,3.60
2018-03-20T14:25:17.792Z,15.07
2018-03-20T14:28:19.060Z,1.47
2018-03-20T14:31:20.316Z,6.03
2018-03-20T14:34:21.636Z,3.80
2018-03-20T14:37:22.883Z,2.67
2018-03-20T14:40:24.141Z,3.17
2018-03-20T14:43:25.392Z,2.63
2018-03-20T14:46:26.636Z,2.93
2018-03-20T14:49:27.864Z,5.90
2018-03-20T14:52:29.920Z,1.47
2018-03-20T14:55:31.206Z,6.63
2018-03-20T14:58:33.208Z,4.40
2018-03-20T15:01:34.444Z,1.07
2018-03-20T15:04:35.687Z,5.67
2018-03-20T15:07:36.922Z,1.03
2018-03-20T15:10:38.140Z,2.30
2018-03-20T15:13:40.166Z,2.00
2018-03-20T15:16:41.424Z,5.30
2018-03-20T15:19:42.706Z,4.37
2018-03-20T15:22:43.932Z,4.63
2018-03-20T15:25:45.143Z,8.13
2018-03-20T15:28:46.407Z,5.10
2018-03-20T15:31:47.676Z,1.37
2018-03-20T15:34:48.937Z,1.60
2018-03-20T15:37:50.183Z,2.20
2018-03-20T15:40:51.428Z,4.27
2018-03-20T15:43:52.706Z,6.33
2018-03-20T15:46:53.974Z,2.83
2018-03-20T15:49:55.198Z,3.30
2018-03-20T15:52:56.472Z,1.33
2018-03-20T15:55:57.749Z,3.30
2018-03-20T15:58:58.995Z,13.70
2018-03-20T16:02:00.345Z,2.87
2018-03-20T16:05:01.583Z,7.83
2018-03-20T16:08:03.683Z,1.90
2018-03-20T16:11:05.038Z,1.60
2018-03-20T16:14:07.039Z,5.90
2018-03-20T16:17:09.071Z,2.20
2018-03-20T16:20:10.339Z,1.07
2018-03-20T16:23:11.553Z,3.33
2018-03-20T16:26:12.857Z,2.60
2018-03-20T16:29:14.125Z,1.30
2018-03-20T16:32:15.405Z,4.10
2018-03-20T16:35:16.647Z,3.30
2018-03-20T16:38:17.868Z,5.13
2018-03-20T16:41:19.147Z,4.83
2018-03-20T16:44:20.414Z,5.20
2018-03-20T16:47:22.415Z,4.33
2018-03-20T16:50:23.654Z,3.87
2018-03-20T16:53:24.935Z,2.40
2018-03-20T16:56:26.201Z,5.83
2018-03-20T16:59:27.451Z,6.83
2018-03-20T17:02:28.695Z,7.10
2018-03-20T17:05:29.951Z,1.40
2018-03-20T17:08:31.199Z,2.13
2018-03-20T17:11:33.176Z,1.57
2018-03-20T17:14:35.193Z,1.77
2018-03-20T17:17:36.441Z,11.17
2018-03-20T17:20:37.775Z,1.93
2018-03-20T17:23:39.014Z,7.83
2018-03-20T17:26:40.269Z,2.70
2018-03-20T17:29:41.533Z,7.13
2018-03-20T17:32:42.787Z,3.30
2018-03-20T17:35:44.070Z,4.27
2018-03-20T17:38:45.341Z,12.73
2018-03-20T17:41:46.579Z,12.57
2018-03-20T17:44:47.914Z,5.07
2018-03-20T17:47:49.173Z,11.53
2018-03-20T17:50:50.776Z,5.00
2018-03-20T17:53:52.034Z,3.07
2018-03-20T17:56:53.281Z,8.53
2018-03-20T17:59:54.582Z,6.77
2018-03-20T18:02:55.877Z,2.37
2018-03-20T18:05:57.840Z,10.50
2018-03-20T18:08:59.074Z,7.33
2018-03-20T18:12:00.350Z,11.57
2018-03-20T18:15:01.571Z,10.00
2018-03-20T18:18:02.830Z,4.43
2018-03-20T18:21:04.083Z,9.40
2018-03-20T18:24:06.086Z,13.13
2018-03-20T18:27:07.334Z,2.77
2018-03-20T18:30:08.619Z,7.03
2018-03-20T18:33:09.783Z,6.70
2018-03-20T18:36:11.037Z,4.80
2018-03-20T18:39:12.278Z,4.43
2018-03-20T18:42:14.273Z,10.80
2018-03-20T18:45:15.566Z,4.07
2018-03-20T18:51:23.288Z,2.50
2018-03-20T18:54:24.579Z,4.73
2018-03-20T18:57:25.812Z,5.07
2018-03-20T19:00:27.052Z,21.70
2018-03-20T19:03:29.038Z,2.83
2018-03-20T19:06:30.991Z,8.03
2018-03-20T19:09:32.225Z,6.83
2018-03-20T19:12:33.708Z,5.53
2018-03-20T19:15:37.476Z,4.20
2018-03-20T19:18:39.315Z,10.23
2018-03-20T19:21:41.370Z,3.80
2018-03-20T19:24:42.664Z,5.70
2018-03-20T19:27:43.933Z,12.80
2018-03-20T19:30:45.514Z,4.17
2018-03-20T19:33:48.246Z,6.40
2018-03-20T19:36:49.636Z,9.70
2018-03-20T19:39:51.085Z,15.17
2018-03-20T19:42:52.430Z,17.80
2018-03-20T19:45:53.780Z,6.53
2018-03-20T19:48:55.418Z,6.23
2018-03-20T19:51:56.775Z,6.83
2018-03-20T19:54:58.120Z,10.47
2018-03-20T19:57:59.425Z,9.20
2018-03-20T20:01:00.789Z,8.23
2018-03-20T20:04:02.082Z,7.70
2018-03-20T20:07:04.449Z,4.70
2018-03-20T20:10:07.247Z,6.23
2018-03-20T20:13:09.252Z,2.30
2018-03-20T20:16:11.783Z,8.23
2018-03-20T20:19:13.168Z,6.40
2018-03-20T20:22:14.580Z,8.50
2018-03-20T20:25:17.113Z,7.23
2018-03-20T20:28:18.743Z,3.50
2018-03-20T20:31:20.267Z,4.97
2018-03-20T20:34:21.583Z,9.07
2018-03-20T20:37:23.356Z,5.70
2018-03-20T20:40:24.643Z,3.80
2018-03-20T20:43:26.303Z,5.90
2018-03-20T20:46:28.109Z,4.10
2018-03-20T20:49:29.388Z,4.33
2018-03-20T20:52:30.689Z,3.93
2018-03-20T20:55:32.796Z,13.53
2018-03-20T20:58:35.380Z,2.80
2018-03-20T21:01:37.149Z,4.20
2018-03-20T21:04:39.200Z,4.70
2018-03-20T21:07:40.720Z,7.97
2018-03-20T21:10:42.020Z,5.40
2018-03-20T21:13:43.279Z,4.00
2018-03-20T21:16:45.005Z,15.80
2018-03-20T21:19:46.323Z,4.30
2018-03-20T21:22:48.143Z,10.43
2018-03-20T21:25:49.438Z,4.83
2018-03-20T21:28:51.476Z,5.97
2018-03-20T21:31:52.768Z,4.60
2018-03-20T21:34:54.055Z,5.77
2018-03-20T21:37:55.289Z,9.33
2018-03-20T21:40:56.552Z,4.13
2018-03-20T21:43:58.077Z,7.80
2018-03-20T21:46:59.320Z,9.83
2018-03-20T21:50:01.704Z,4.83
2018-03-20T21:53:02.991Z,7.13
2018-03-20T21:56:04.252Z,6.37
2018-03-20T21:59:05.502Z,4.97
2018-03-20T22:02:06.810Z,12.73
2018-03-20T22:05:08.775Z,6.53
2018-03-20T22:08:10.024Z,8.73
2018-03-20T22:11:11.307Z,8.50
2018-03-20T22:14:12.640Z,7.87
2018-03-20T22:17:13.935Z,5.60
2018-03-20T22:20:15.202Z,4.20
2018-03-20T22:23:17.771Z,4.13
2018-03-20T22:26:19.769Z,5.27
2018-03-20T22:29:21.034Z,8.30
2018-03-20T22:32:22.316Z,3.63
2018-03-20T22:35:24.361Z,6.30
2018-03-20T22:38:25.654Z,3.77
2018-03-20T22:41:27.674Z,6.00
2018-03-20T22:44:28.956Z,13.33
2018-03-20T22:47:30.238Z,7.43
2018-03-20T22:50:31.639Z,5.63
2018-03-20T22:53:33.673Z,8.63
2018-03-20T22:56:35.249Z,10.90
2018-03-20T22:59:36.522Z,3.80
2018-03-20T23:02:37.805Z,10.50
2018-03-20T23:05:39.777Z,10.40
2018-03-20T23:08:41.017Z,4.13
2018-03-20T23:11:42.334Z,6.80
2018-03-20T23:14:43.654Z,6.93
2018-03-20T23:17:44.967Z,4.20
2018-03-20T23:20:46.218Z,4.20
2018-03-20T23:23:48.203Z,3.90
2018-03-20T23:26:50.253Z,3.77
2018-03-20T23:29:51.538Z,3.80
2018-03-20T23:32:53.539Z,3.67
2018-03-20T23:35:54.784Z,8.50
2018-03-20T23:38:56.744Z,4.60
2018-03-20T23:41:57.985Z,7.47
2018-03-20T23:44:59.270Z,4.93
2018-03-20T23:48:00.541Z,7.17
2018-03-20T23:51:02.571Z,4.80
2018-03-20T23:54:03.816Z,5.30
2018-03-20T23:57:05.061Z,9.47
